createdAt,value
2022-09-02T00:01:57.912Z,66.50
2022-09-02T00:04:59.941Z,67.00
2022-09-02T00:08:02.034Z,67.30
2022-09-02T00:11:04.461Z,67.10
2022-09-02T00:14:10.369Z,67.00
2022-09-02T00:17:12.548Z,65.90
2022-09-02T00:20:14.408Z,66.10
2022-09-02T00:23:18.924Z,67.10
2022-09-02T00:26:21.441Z,66.70
2022-09-02T00:29:23.481Z,67.40
2022-09-02T00:32:25.334Z,67.70
2022-09-02T00:35:27.439Z,66.80
2022-09-02T00:38:31.153Z,66.70
2022-09-02T00:41:33.287Z,67.30
2022-09-02T00:44:35.248Z,66.90
2022-09-02T00:47:40.095Z,67.20
2022-09-02T00:50:42.141Z,67.60
2022-09-02T00:53:46.573Z,68.00
2022-09-02T00:56:49.968Z,67.70
2022-09-02T01:00:23.290Z,68.40
2022-09-02T01:03:31.580Z,68.70
2022-09-02T01:06:33.630Z,68.10
2022-09-02T01:09:35.776Z,68.70
2022-09-02T01:12:38.317Z,69.20
2022-09-02T01:15:44.392Z,69.10
2022-09-02T01:18:50.605Z,69.20
2022-09-02T01:21:55.057Z,69.70
2022-09-02T01:25:04.281Z,70.60
2022-09-02T01:28:11.082Z,70.00
2022-09-02T01:31:14.987Z,70.20
2022-09-02T01:34:17.321Z,69.80
2022-09-02T01:37:20.613Z,69.80
2022-09-02T01:40:24.085Z,69.80
2022-09-02T01:43:28.644Z,70.80
2022-09-02T01:46:30.777Z,71.80
2022-09-02T01:49:35.321Z,71.70
2022-09-02T01:52:38.267Z,71.70
2022-09-02T01:55:40.170Z,71.80
2022-09-02T01:58:42.811Z,71.90
2022-09-02T02:01:45.970Z,72.20
2022-09-02T02:04:49.481Z,72.00
2022-09-02T02:07:51.778Z,72.10
2022-09-02T02:10:53.947Z,71.60
2022-09-02T02:13:57.943Z,71.80
2022-09-02T02:17:01.379Z,70.90
2022-09-02T02:20:03.843Z,70.50
2022-09-02T02:23:06.904Z,71.20
2022-09-02T02:26:09.106Z,71.50
2022-09-02T02:29:12.957Z,70.10
2022-09-02T02:32:15.110Z,70.20
2022-09-02T02:35:18.675Z,70.30
2022-09-02T02:38:20.720Z,71.00
2022-09-02T02:41:23.374Z,70.80
2022-09-02T02:44:25.331Z,70.90
2022-09-02T02:47:27.418Z,71.00
2022-09-02T02:50:29.398Z,71.30
2022-09-02T02:53:35.099Z,71.40
2022-09-02T02:56:37.306Z,70.10
2022-09-02T02:59:39.546Z,69.30
2022-09-02T03:02:42.248Z,69.30
2022-09-02T03:05:44.311Z,69.70
2022-09-02T03:08:46.401Z,69.90
2022-09-02T03:11:53.841Z,69.20
2022-09-02T03:14:55.775Z,70.10
2022-09-02T03:17:57.812Z,70.40
2022-09-02T03:21:00.534Z,70.90
2022-09-02T03:24:02.673Z,71.40
2022-09-02T03:27:05.238Z,71.20
2022-09-02T03:30:09.800Z,71.80
2022-09-02T03:33:12.365Z,72.20
2022-09-02T03:36:27.490Z,71.80
2022-09-02T03:39:30.795Z,71.70
2022-09-02T03:42:33.386Z,72.40
2022-09-02T03:45:35.468Z,72.10
2022-09-02T03:48:41.037Z,72.00
2022-09-02T03:51:46.192Z,72.40
2022-09-02T03:54:48.285Z,72.80
2022-09-02T03:57:50.628Z,72.90
2022-09-02T04:00:53.991Z,73.00
2022-09-02T04:03:57.739Z,73.00
2022-09-02T04:07:00.859Z,72.80
2022-09-02T04:10:04.292Z,73.10
2022-09-02T04:13:06.926Z,73.00
2022-09-02T04:16:12.052Z,72.60
2022-09-02T04:19:14.166Z,73.70
2022-09-02T04:22:17.121Z,73.30
2022-09-02T04:25:19.504Z,73.70
2022-09-02T04:28:29.260Z,73.80
2022-09-02T04:31:35.900Z,73.80
2022-09-02T04:34:38.281Z,74.30
2022-09-02T04:37:40.126Z,74.80
2022-09-02T04:40:46.220Z,74.40
2022-09-02T04:43:49.762Z,75.20
2022-09-02T04:46:52.127Z,75.30
2022-09-02T04:49:57.008Z,74.80
2022-09-02T04:52:59.275Z,74.90
2022-09-02T04:56:07.642Z,74.70
2022-09-02T04:59:10.670Z,74.60
2022-09-02T05:02:17.835Z,74.20
2022-09-02T05:05:20.522Z,74.50
2022-09-02T05:08:30.100Z,74.50
2022-09-02T05:11:32.634Z,74.20
2022-09-02T05:14:34.482Z,73.90
2022-09-02T05:17:39.980Z,74.60
2022-09-02T05:20:42.761Z,74.30
2022-09-02T05:23:45.643Z,74.20
2022-09-02T05:26:48.170Z,74.60
2022-09-02T05:29:50.325Z,75.00
2022-09-02T05:32:55.711Z,75.30
2022-09-02T05:35:58.636Z,75.50
2022-09-02T05:39:01.022Z,74.90
2022-09-02T05:42:03.025Z,74.30
2022-09-02T05:45:11.640Z,74.60
2022-09-02T05:48:18.330Z,73.60
2022-09-02T05:51:20.906Z,73.20
2022-09-02T05:54:27.241Z,73.70
2022-09-02T05:57:29.571Z,72.80
2022-09-02T06:00:35.749Z,72.20
2022-09-02T06:03:38.418Z,71.50
2022-09-02T06:06:42.880Z,71.40
2022-09-02T06:09:45.882Z,70.90
2022-09-02T06:12:48.817Z,69.40
2022-09-02T06:15:54.393Z,68.60
2022-09-02T06:19:02.234Z,68.10
2022-09-02T06:22:04.875Z,66.40
2022-09-02T06:25:09.725Z,65.80
2022-09-02T06:28:13.221Z,65.40
2022-09-02T06:31:21.327Z,61.20
2022-09-02T06:34:25.268Z,60.80
2022-09-02T06:37:27.435Z,57.40
2022-09-02T06:40:29.971Z,55.50
2022-09-02T06:43:37.723Z,53.80
2022-09-02T06:46:59.407Z,52.50
2022-09-02T06:50:05.425Z,52.60
2022-09-02T06:53:08.042Z,51.60
2022-09-02T06:56:11.640Z,49.90
2022-09-02T06:59:14.957Z,48.00
2022-09-02T07:05:40.480Z,46.50
2022-09-02T07:08:43.650Z,45.70
2022-09-02T07:11:47.659Z,46.00
2022-09-02T07:14:50.095Z,46.10
2022-09-02T07:17:57.444Z,44.80
2022-09-02T07:21:12.525Z,44.10
2022-09-02T07:24:16.654Z,43.70
2022-09-02T07:27:19.484Z,43.10
2022-09-02T07:30:23.402Z,42.70
2022-09-02T07:33:32.245Z,42.90
2022-09-02T07:36:38.285Z,42.10
2022-09-02T07:39:42.479Z,42.10
2022-09-02T07:42:47.586Z,40.90
2022-09-02T07:45:50.069Z,42.00
2022-09-02T07:48:52.680Z,40.00
2022-09-02T07:51:55.557Z,39.00
2022-09-02T07:54:57.674Z,40.90
2022-09-02T07:58:00.540Z,38.90
2022-09-02T08:01:02.727Z,39.50
2022-09-02T08:04:06.253Z,40.20
2022-09-02T08:07:14.867Z,40.30
2022-09-02T08:10:17.205Z,38.50
2022-09-02T08:13:19.620Z,40.00
2022-09-02T08:16:23.759Z,40.20
2022-09-02T08:19:26.096Z,39.60
2022-09-02T08:25:36.712Z,38.60
2022-09-02T08:28:38.915Z,37.00
2022-09-02T08:31:40.924Z,37.10
2022-09-02T08:34:42.945Z,36.00
2022-09-02T08:37:45.577Z,36.20
2022-09-02T08:40:48.138Z,36.30
2022-09-02T08:43:55.037Z,35.90
2022-09-02T08:47:03.343Z,36.00
2022-09-02T08:50:15.190Z,35.60
2022-09-02T08:53:30.824Z,34.70
2022-09-02T08:56:35.066Z,35.80
2022-09-02T08:59:38.151Z,35.70
2022-09-02T09:03:13.448Z,34.90
2022-09-02T09:06:31.981Z,34.90
2022-09-02T09:09:40.250Z,33.50
2022-09-02T09:13:00.707Z,34.80
2022-09-02T09:16:09.385Z,34.80
2022-09-02T09:19:35.865Z,34.80
2022-09-02T09:22:39.839Z,34.90
2022-09-02T09:25:42.946Z,35.40
2022-09-02T09:28:47.374Z,36.10
2022-09-02T09:31:58.931Z,34.90
2022-09-02T09:35:07.463Z,34.20
2022-09-02T09:38:14.086Z,34.40
2022-09-02T09:41:23.055Z,33.60
2022-09-02T09:44:46.752Z,33.10
2022-09-02T09:48:14.354Z,35.30
2022-09-02T09:51:16.365Z,34.30
2022-09-02T09:54:18.388Z,35.10
2022-09-02T09:57:21.620Z,35.00
2022-09-02T10:00:31.345Z,33.00
2022-09-02T10:03:33.557Z,34.10
2022-09-02T10:06:44.941Z,31.90
2022-09-02T10:09:48.452Z,32.70
2022-09-02T10:12:53.870Z,33.00
2022-09-02T10:16:21.162Z,34.20
2022-09-02T10:19:39.314Z,33.80
2022-09-02T10:23:08.834Z,33.40
2022-09-02T10:29:54.950Z,33.60
2022-09-02T10:33:08.393Z,32.40
2022-09-02T10:36:25.123Z,33.30
2022-09-02T10:39:57.735Z,31.50
2022-09-02T10:43:05.763Z,31.60
2022-09-02T10:46:09.657Z,32.00
2022-09-02T10:49:29.348Z,32.40
2022-09-02T11:03:33.244Z,31.60
2022-09-02T11:07:01.809Z,32.40
2022-09-02T11:10:56.517Z,35.00
2022-09-02T11:14:21.045Z,33.20
2022-09-02T11:17:33.431Z,33.80
2022-09-02T11:20:38.227Z,32.90
2022-09-02T11:24:09.932Z,33.50
2022-09-02T11:27:32.164Z,35.40
2022-09-02T11:30:47.018Z,33.50
2022-09-02T11:37:29.611Z,34.50
2022-09-02T11:44:52.673Z,34.90
2022-09-02T11:48:14.265Z,33.90
2022-09-02T11:51:34.681Z,35.70
2022-09-02T11:54:41.218Z,37.80
2022-09-02T11:57:43.404Z,33.20
2022-09-02T12:00:57.457Z,33.40
2022-09-02T12:07:47.907Z,32.90
2022-09-02T12:10:49.752Z,31.90
2022-09-02T12:13:51.640Z,34.10
2022-09-02T12:17:06.133Z,32.50
2022-09-02T12:20:11.476Z,33.00
2022-09-02T12:23:48.681Z,34.00
2022-09-02T12:26:51.669Z,33.60
2022-09-02T12:29:55.589Z,35.10
2022-09-02T12:33:10.196Z,34.20
2022-09-02T12:36:36.844Z,32.60
2022-09-02T12:39:41.784Z,33.80
2022-09-02T12:42:46.743Z,32.60
2022-09-02T12:45:50.742Z,32.60
2022-09-02T12:49:11.829Z,33.30
2022-09-02T12:52:36.417Z,32.20
2022-09-02T12:55:50.469Z,32.00
2022-09-02T12:59:01.714Z,32.90
2022-09-02T13:02:30.630Z,31.70
2022-09-02T13:05:59.237Z,32.20
2022-09-02T13:09:37.190Z,32.50
2022-09-02T13:12:55.934Z,33.70
2022-09-02T13:16:22.121Z,32.40
2022-09-02T13:19:30.308Z,32.00
2022-09-02T13:22:48.056Z,31.80
2022-09-02T13:26:45.591Z,32.30
2022-09-02T13:30:05.040Z,32.50
2022-09-02T13:33:11.596Z,33.20
2022-09-02T13:36:27.713Z,30.70
2022-09-02T13:39:29.782Z,32.20
2022-09-02T13:42:32.734Z,32.30
2022-09-02T13:45:35.833Z,33.00
2022-09-02T13:48:40.291Z,34.20
2022-09-02T13:51:42.332Z,31.60
2022-09-02T13:54:48.385Z,32.50
2022-09-02T13:58:03.303Z,32.80
2022-09-02T14:01:38.519Z,32.10
2022-09-02T14:04:40.677Z,32.00
2022-09-02T14:07:50.210Z,33.00
2022-09-02T14:10:53.541Z,32.20
2022-09-02T14:13:56.747Z,32.70
2022-09-02T14:17:21.824Z,33.20
2022-09-02T14:20:23.787Z,33.60
2022-09-02T14:23:27.898Z,31.70
2022-09-02T14:26:37.286Z,31.30
2022-09-02T14:29:44.932Z,31.60
2022-09-02T14:32:46.874Z,32.60
2022-09-02T14:35:57.098Z,30.80
2022-09-02T14:39:18.001Z,31.70
2022-09-02T14:42:20.198Z,31.80
2022-09-02T14:45:30.678Z,31.40
2022-09-02T14:48:38.215Z,30.90
2022-09-02T14:51:49.204Z,30.60
2022-09-02T14:54:52.751Z,31.60
2022-09-02T14:58:02.408Z,31.40
2022-09-02T15:01:04.680Z,32.00
2022-09-02T15:04:06.733Z,31.00
2022-09-02T15:07:08.648Z,32.10
2022-09-02T15:10:10.776Z,31.00
2022-09-02T15:13:18.639Z,31.60
2022-09-02T15:16:20.699Z,30.80
2022-09-02T15:19:22.742Z,30.60
2022-09-02T15:22:25.186Z,31.00
2022-09-02T15:25:27.155Z,38.10
2022-09-02T15:28:29.123Z,37.30
2022-09-02T15:31:31.106Z,37.20
2022-09-02T15:34:34.017Z,33.00
2022-09-02T15:37:36.713Z,39.00
2022-09-02T15:40:38.610Z,37.20
2022-09-02T15:43:40.755Z,36.40
2022-09-02T15:46:43.871Z,31.60
2022-09-02T15:49:45.767Z,32.80
2022-09-02T15:52:47.576Z,33.20
2022-09-02T15:55:49.535Z,33.30
2022-09-02T15:58:59.492Z,34.10
2022-09-02T16:02:01.604Z,32.20
2022-09-02T16:05:03.783Z,32.70
2022-09-02T16:08:05.737Z,33.00
2022-09-02T16:11:08.932Z,32.00
2022-09-02T16:14:11.135Z,32.00
2022-09-02T16:17:13.009Z,32.30
2022-09-02T16:20:19.166Z,32.70
2022-09-02T16:23:23.288Z,32.60
2022-09-02T16:26:27.618Z,33.50
2022-09-02T16:29:29.472Z,34.90
2022-09-02T16:32:31.363Z,34.00
2022-09-02T16:35:33.319Z,33.40
2022-09-02T16:38:35.178Z,33.60
2022-09-02T16:41:40.556Z,33.90
2022-09-02T16:44:42.472Z,34.00
2022-09-02T16:47:44.597Z,33.60
2022-09-02T16:50:47.298Z,34.10
2022-09-02T16:53:57.181Z,33.70
2022-09-02T16:56:59.623Z,34.20
2022-09-02T17:00:01.526Z,34.70
2022-09-02T17:03:03.503Z,34.30
2022-09-02T17:06:06.346Z,34.70
2022-09-02T17:09:08.314Z,34.50
2022-09-02T17:12:10.317Z,34.80
2022-09-02T17:15:12.165Z,35.90
2022-09-02T17:18:14.091Z,35.80
2022-09-02T17:21:52.271Z,36.20
2022-09-02T17:24:54.171Z,36.50
2022-09-02T17:27:56.026Z,36.90
2022-09-02T17:30:58.011Z,37.90
2022-09-02T17:34:02.325Z,40.10
2022-09-02T17:37:04.617Z,38.20
2022-09-02T17:40:09.201Z,38.50
2022-09-02T17:43:11.266Z,40.40
2022-09-02T17:46:13.210Z,40.90
2022-09-02T17:49:17.755Z,39.80
2022-09-02T17:52:22.319Z,44.20
2022-09-02T17:55:24.277Z,44.50
2022-09-02T17:58:29.370Z,46.10
2022-09-02T18:01:36.259Z,42.80
2022-09-02T18:04:58.209Z,43.30
2022-09-02T18:08:13.868Z,46.10
2022-09-02T18:11:15.842Z,47.20
2022-09-02T18:14:23.836Z,45.10
2022-09-02T18:17:41.231Z,44.50
2022-09-02T18:20:46.842Z,47.60
2022-09-02T18:24:23.992Z,46.20
2022-09-02T18:27:44.216Z,47.30
2022-09-02T18:31:07.914Z,47.40
2022-09-02T18:34:38.276Z,45.50
2022-09-02T18:38:00.709Z,43.50
2022-09-02T18:41:54.728Z,44.10
2022-09-02T18:45:21.919Z,48.10
2022-09-02T18:48:36.635Z,44.50
2022-09-02T18:51:45.480Z,44.60
2022-09-02T18:54:51.628Z,49.30
2022-09-02T18:57:57.376Z,46.00
2022-09-02T19:01:20.829Z,48.60
2022-09-02T19:04:29.239Z,49.00
2022-09-02T19:07:31.906Z,45.90
2022-09-02T19:10:33.840Z,45.90
2022-09-02T19:13:50.860Z,50.80
2022-09-02T19:16:53.858Z,48.10
2022-09-02T19:19:55.839Z,46.10
2022-09-02T19:22:58.152Z,49.00
2022-09-02T19:26:00.022Z,48.40
2022-09-02T19:29:01.907Z,50.70
2022-09-02T19:32:04.408Z,51.50
2022-09-02T19:35:10.516Z,51.10
2022-09-02T19:38:12.527Z,51.90
2022-09-02T19:41:14.505Z,50.60
2022-09-02T19:44:16.305Z,52.20
2022-09-02T19:48:05.096Z,50.60
2022-09-02T19:50:44.530Z,48.70
2022-09-02T19:53:46.810Z,50.30
2022-09-02T19:56:48.644Z,51.00
2022-09-02T19:59:52.990Z,50.00
2022-09-02T20:02:55.675Z,47.40
2022-09-02T20:05:58.969Z,47.30
2022-09-02T20:09:01.063Z,47.50
2022-09-02T20:12:03.071Z,47.90
2022-09-02T20:15:05.948Z,47.70
2022-09-02T20:18:13.332Z,50.30
2022-09-02T20:21:30.700Z,52.50
2022-09-02T20:24:34.155Z,52.10
2022-09-02T20:27:59.136Z,51.80
2022-09-02T20:31:35.185Z,50.10
2022-09-02T20:34:49.493Z,53.50
2022-09-02T20:37:59.824Z,52.20
2022-09-02T20:41:35.798Z,52.60
2022-09-02T20:44:50.639Z,51.10
2022-09-02T20:48:02.595Z,53.10
2022-09-02T20:51:29.300Z,52.80
2022-09-02T20:54:44.776Z,55.30
2022-09-02T20:58:01.351Z,52.40
2022-09-02T21:01:06.387Z,50.60
2022-09-02T21:04:26.994Z,52.40
2022-09-02T21:07:35.015Z,52.50
2022-09-02T21:10:43.082Z,50.90
2022-09-02T21:13:47.862Z,48.90
2022-09-02T21:16:57.249Z,50.00
2022-09-02T21:20:06.204Z,50.90
2022-09-02T21:23:17.883Z,50.30
2022-09-02T21:26:31.034Z,50.40
2022-09-02T21:29:48.481Z,52.80
2022-09-02T21:32:56.213Z,51.70
2022-09-02T21:36:00.038Z,51.60
2022-09-02T21:39:08.897Z,50.20
2022-09-02T21:42:25.402Z,50.10
2022-09-02T21:46:16.482Z,49.80
2022-09-02T21:50:03.327Z,49.50
2022-09-02T21:53:23.088Z,51.20
2022-09-02T21:56:55.986Z,49.90
2022-09-02T22:00:00.699Z,49.70
2022-09-02T22:03:23.652Z,50.30
2022-09-02T22:06:47.868Z,50.50
2022-09-02T22:10:08.163Z,49.80
2022-09-02T22:13:11.046Z,50.00
2022-09-02T22:16:20.217Z,50.20
2022-09-02T22:19:26.160Z,50.10
2022-09-02T22:22:31.721Z,49.50
2022-09-02T22:25:33.620Z,49.30
2022-09-02T22:28:46.525Z,49.30
2022-09-02T22:31:50.189Z,49.40
2022-09-02T22:35:17.482Z,49.30
2022-09-02T22:38:28.981Z,49.10
2022-09-02T22:41:33.725Z,49.50
2022-09-02T22:44:45.234Z,49.40
2022-09-02T22:47:55.735Z,49.90
2022-09-02T22:51:08.307Z,51.00
2022-09-02T22:54:10.283Z,51.00
2022-09-02T22:57:30.747Z,50.80
2022-09-02T23:00:43.120Z,50.10
2022-09-02T23:03:45.115Z,50.40
2022-09-02T23:06:47.073Z,50.00
2022-09-02T23:09:52.318Z,50.10
2022-09-02T23:13:15.051Z,49.60
2022-09-02T23:16:36.555Z,50.40
2022-09-02T23:19:46.078Z,50.10
2022-09-02T23:23:26.691Z,50.30
2022-09-02T23:26:57.124Z,50.40
2022-09-02T23:29:59.005Z,51.00
2022-09-02T23:33:31.543Z,51.30
2022-09-02T23:37:09.490Z,51.00
2022-09-02T23:40:27.936Z,52.50
2022-09-02T23:43:32.900Z,51.70
2022-09-02T23:47:32.378Z,51.10
2022-09-02T23:50:37.251Z,50.50
2022-09-02T23:53:58.026Z,50.50
2022-09-02T23:57:32.592Z,51.30
